Keystone, Iowa
Current Conditions -  °F | °C
As of 8:52 AM on Tuesday 21 Oct 2014 (Local Time) from KCID Reporting Station
Clear Clear  
Wind Chill: 44°   Ceiling: Unl
Heat Index: 46°   Visibility: 10mi
Dew Point: 41°   Wind: 5mph
Humidity: 83%   Direction: 50°NE
Pressure: 30.18"   Gusts: NA
Location:  42°N, 92.2°W
Report Text: KCID 211352Z 05004KT 10SM CLR 08/05 A3018 RMK AO2 SLP222 T00780050
Loading
Personal Weather Stations






























Interactive Weather Map
Tropical Storm Tracking
New forecast layout! Learn more

10-Day Weather Forecast

Advertisements
Track Severe Weather on mobile